createdAt,value
2022-11-10T00:00:51.506Z,5.10
2022-11-10T00:01:51.402Z,5.20
2022-11-10T00:02:51.390Z,5.80
2022-11-10T00:03:51.637Z,5.60
2022-11-10T00:04:51.255Z,5.80
2022-11-10T00:05:51.183Z,5.70
2022-11-10T00:06:51.164Z,5.80
2022-11-10T00:07:51.081Z,5.40
2022-11-10T00:08:50.983Z,5.10
2022-11-10T00:09:51.213Z,5.30
2022-11-10T00:10:50.864Z,6.40
2022-11-10T00:11:50.809Z,5.00
2022-11-10T00:12:50.745Z,5.40
2022-11-10T00:13:50.662Z,5.40
2022-11-10T00:14:50.607Z,5.40
2022-11-10T00:15:50.580Z,5.00
2022-11-10T00:16:50.499Z,5.40
2022-11-10T00:17:50.412Z,5.30
2022-11-10T00:18:50.372Z,4.90
2022-11-10T00:19:50.309Z,4.70
2022-11-10T00:20:50.250Z,4.80
2022-11-10T00:21:50.183Z,5.30
2022-11-10T00:22:50.119Z,5.10
2022-11-10T00:23:50.032Z,5.40
2022-11-10T00:24:49.987Z,4.80
2022-11-10T00:25:49.902Z,5.80
2022-11-10T00:26:49.840Z,5.30
2022-11-10T00:27:49.795Z,5.60
2022-11-10T00:28:49.711Z,5.10
2022-11-10T00:29:49.641Z,5.30
2022-11-10T00:30:49.599Z,4.90
2022-11-10T00:31:49.522Z,5.30
2022-11-10T00:32:49.472Z,6.30
2022-11-10T00:33:49.425Z,5.20
2022-11-10T00:34:49.348Z,5.50
2022-11-10T00:35:49.271Z,5.80
2022-11-10T00:36:49.196Z,5.50
2022-11-10T00:37:49.151Z,6.60
2022-11-10T00:38:49.068Z,5.40
2022-11-10T00:39:49.034Z,5.90
2022-11-10T00:40:48.955Z,5.70
2022-11-10T00:41:48.880Z,5.50
2022-11-10T00:42:48.835Z,5.50
2022-11-10T00:43:48.767Z,5.00
2022-11-10T00:44:48.709Z,5.40
2022-11-10T00:47:27.600Z,4.90
2022-11-10T00:48:28.548Z,5.40
2022-11-10T00:49:28.503Z,5.10
2022-11-10T00:50:28.409Z,5.50
2022-11-10T00:51:28.376Z,6.00
2022-11-10T00:52:28.279Z,5.40
2022-11-10T00:53:28.221Z,5.60
2022-11-10T00:54:28.136Z,5.30
2022-11-10T00:55:28.103Z,5.40
2022-11-10T00:56:28.033Z,5.60
2022-11-10T00:57:27.981Z,5.50
2022-11-10T00:58:27.924Z,6.10
2022-11-10T00:59:27.844Z,5.40
2022-11-10T01:00:27.784Z,5.90
2022-11-10T01:01:27.780Z,5.90
2022-11-10T01:02:27.652Z,6.00
2022-11-10T01:03:27.605Z,6.10
2022-11-10T01:04:27.518Z,6.50
2022-11-10T01:05:27.448Z,6.40
2022-11-10T01:06:27.378Z,7.00
2022-11-10T01:07:27.335Z,7.20
2022-11-10T01:08:27.272Z,7.00
2022-11-10T01:09:27.210Z,6.40
2022-11-10T01:10:27.156Z,7.50
2022-11-10T01:11:27.101Z,8.00
2022-11-10T01:12:27.021Z,6.90
2022-11-10T01:13:26.951Z,6.70
2022-11-10T01:14:26.866Z,6.90
2022-11-10T01:15:27.999Z,6.60
2022-11-10T01:16:26.763Z,6.30
2022-11-10T01:17:26.690Z,5.60
2022-11-10T01:18:26.626Z,5.70
2022-11-10T01:19:26.557Z,5.80
2022-11-10T01:20:26.498Z,6.30
2022-11-10T01:23:05.403Z,5.60
2022-11-10T01:24:06.349Z,5.70
2022-11-10T01:25:06.271Z,5.90
2022-11-10T01:26:06.229Z,5.30
2022-11-10T01:27:06.164Z,6.00
2022-11-10T01:28:06.096Z,5.80
2022-11-10T01:29:06.040Z,5.40
2022-11-10T01:30:05.953Z,5.20
2022-11-10T01:31:05.898Z,5.60
2022-11-10T01:32:05.849Z,6.00
2022-11-10T01:33:05.806Z,5.80
2022-11-10T01:34:05.706Z,5.60
2022-11-10T01:35:05.660Z,5.60
2022-11-10T01:36:05.575Z,5.60
2022-11-10T01:37:05.499Z,6.50
2022-11-10T01:38:05.439Z,6.50
2022-11-10T01:39:05.380Z,5.60
2022-11-10T01:40:05.420Z,6.60
2022-11-10T01:41:05.232Z,6.30
2022-11-10T01:42:05.195Z,6.80
2022-11-10T01:43:05.123Z,5.70
2022-11-10T01:44:05.076Z,6.00
2022-11-10T01:45:05.025Z,6.10
2022-11-10T01:46:04.931Z,5.90
2022-11-10T01:47:04.885Z,5.50
2022-11-10T01:48:04.798Z,6.10
2022-11-10T01:49:04.729Z,5.60
2022-11-10T01:50:04.669Z,5.40
2022-11-10T01:51:04.618Z,6.90
2022-11-10T01:52:04.479Z,6.50
2022-11-10T01:53:04.428Z,5.60
2022-11-10T01:54:04.374Z,6.00
2022-11-10T01:55:04.296Z,7.10
2022-11-10T01:56:04.302Z,6.40
2022-11-10T01:57:25.219Z,5.90
2022-11-10T01:58:04.172Z,6.40
2022-11-10T01:59:04.095Z,5.60
2022-11-10T02:00:04.053Z,6.10
2022-11-10T02:01:04.028Z,5.90
2022-11-10T02:02:03.905Z,5.40
2022-11-10T02:03:03.860Z,5.50
2022-11-10T02:04:03.787Z,6.10
2022-11-10T02:05:04.348Z,5.60
2022-11-10T02:06:03.646Z,5.40
2022-11-10T02:07:03.653Z,5.20
2022-11-10T02:08:03.533Z,5.10
2022-11-10T02:09:03.496Z,5.10
2022-11-10T02:10:03.399Z,5.70
2022-11-10T02:11:03.335Z,5.10
2022-11-10T02:12:03.267Z,4.60
2022-11-10T02:13:03.211Z,5.30
2022-11-10T02:14:03.160Z,4.60
2022-11-10T02:15:03.121Z,4.80
2022-11-10T02:16:03.016Z,5.40
2022-11-10T02:17:02.958Z,4.80
2022-11-10T02:18:02.891Z,6.00
2022-11-10T02:19:02.830Z,4.50
2022-11-10T02:20:02.755Z,4.80
2022-11-10T02:21:02.714Z,5.30
2022-11-10T02:22:02.648Z,4.90
2022-11-10T02:23:02.578Z,4.70
2022-11-10T02:24:02.531Z,4.90
2022-11-10T02:25:02.431Z,4.80
2022-11-10T02:26:02.383Z,5.10
2022-11-10T02:27:02.349Z,4.40
2022-11-10T02:28:02.240Z,4.10
2022-11-10T02:29:02.199Z,4.80
2022-11-10T02:30:02.104Z,4.40
2022-11-10T02:31:02.062Z,4.40
2022-11-10T02:32:01.983Z,4.80
2022-11-10T02:33:23.352Z,4.90
2022-11-10T02:34:01.865Z,4.70
2022-11-10T02:35:01.797Z,4.80
2022-11-10T02:36:01.708Z,4.80
2022-11-10T02:37:01.670Z,5.40
2022-11-10T02:38:01.623Z,4.70
2022-11-10T02:39:01.576Z,5.30
2022-11-10T02:40:01.456Z,4.20
2022-11-10T02:41:01.410Z,5.00
2022-11-10T02:42:01.366Z,4.70
2022-11-10T02:43:01.282Z,4.60
2022-11-10T02:44:01.193Z,4.90
2022-11-10T02:45:01.172Z,4.40
2022-11-10T02:46:01.086Z,4.60
2022-11-10T02:47:01.017Z,4.20
2022-11-10T02:48:00.973Z,4.40
2022-11-10T02:49:00.898Z,5.30
2022-11-10T02:50:00.840Z,4.40
2022-11-10T02:51:00.795Z,5.10
2022-11-10T02:52:00.707Z,4.50
2022-11-10T02:53:00.639Z,4.10
2022-11-10T02:54:00.598Z,4.60
2022-11-10T02:55:00.535Z,3.80
2022-11-10T02:56:00.451Z,4.10
2022-11-10T02:57:00.414Z,4.20
2022-11-10T02:58:00.322Z,4.40
2022-11-10T02:59:00.832Z,3.80
2022-11-10T03:00:00.216Z,4.40
2022-11-10T03:01:00.206Z,4.30
2022-11-10T03:02:00.093Z,4.30
2022-11-10T03:02:59.993Z,4.00
2022-11-10T03:03:59.940Z,4.80
2022-11-10T03:04:59.883Z,4.00
2022-11-10T03:05:59.804Z,4.60
2022-11-10T03:06:59.815Z,4.90
2022-11-10T03:07:59.706Z,4.50
2022-11-10T03:08:59.620Z,4.10
2022-11-10T03:09:59.541Z,4.60
2022-11-10T03:10:59.463Z,4.80
2022-11-10T03:11:59.415Z,4.40
2022-11-10T03:12:59.369Z,4.70
2022-11-10T03:14:01.906Z,5.00
2022-11-10T03:14:59.263Z,4.00
2022-11-10T03:15:59.178Z,4.30
2022-11-10T03:16:59.105Z,4.40
2022-11-10T03:17:59.030Z,5.70
2022-11-10T03:18:58.965Z,5.30
2022-11-10T03:19:58.911Z,4.10
2022-11-10T03:20:58.855Z,4.60
2022-11-10T03:21:58.786Z,4.40
2022-11-10T03:22:58.709Z,4.70
2022-11-10T03:23:58.680Z,5.10
2022-11-10T03:24:58.611Z,4.80
2022-11-10T03:25:59.333Z,4.80
2022-11-10T03:26:58.450Z,5.00
2022-11-10T03:27:58.349Z,5.60
2022-11-10T03:28:58.329Z,5.10
2022-11-10T03:29:58.286Z,5.40
2022-11-10T03:30:58.227Z,4.60
2022-11-10T03:31:58.168Z,4.50
2022-11-10T03:32:58.368Z,4.60
2022-11-10T03:33:58.039Z,4.60
2022-11-10T03:34:57.983Z,4.70
2022-11-10T03:35:57.916Z,4.60
2022-11-10T03:36:57.855Z,5.30
2022-11-10T03:37:57.772Z,4.50
2022-11-10T03:38:57.721Z,7.50
2022-11-10T03:39:57.622Z,5.90
2022-11-10T03:41:18.184Z,5.60
2022-11-10T03:41:57.466Z,4.40
2022-11-10T03:42:57.475Z,4.20
2022-11-10T03:43:57.394Z,4.30
2022-11-10T03:44:57.333Z,4.40
2022-11-10T03:45:57.251Z,4.70
2022-11-10T03:46:57.207Z,4.80
2022-11-10T03:47:57.117Z,4.40
2022-11-10T03:48:57.047Z,4.00
2022-11-10T03:49:57.004Z,4.90
2022-11-10T03:50:56.949Z,4.30
2022-11-10T03:51:56.884Z,5.50
2022-11-10T03:52:56.796Z,4.50
2022-11-10T03:53:56.754Z,4.90
2022-11-10T03:55:02.043Z,4.80
2022-11-10T03:55:56.625Z,4.60
2022-11-10T03:56:56.567Z,4.30
2022-11-10T03:57:56.471Z,4.90
2022-11-10T03:58:56.430Z,4.60
2022-11-10T03:59:56.357Z,4.50
2022-11-10T04:00:56.300Z,5.10
2022-11-10T04:01:56.322Z,4.80
2022-11-10T04:02:56.173Z,5.80
2022-11-10T04:03:56.097Z,4.80
2022-11-10T04:04:56.049Z,5.60
2022-11-10T04:05:55.979Z,4.40
2022-11-10T04:06:55.996Z,5.70
2022-11-10T04:07:55.841Z,4.90
2022-11-10T04:08:55.801Z,4.50
2022-11-10T04:09:55.730Z,6.10
2022-11-10T04:10:55.669Z,5.60
2022-11-10T04:11:55.596Z,5.20
2022-11-10T04:12:55.529Z,5.00
2022-11-10T04:13:55.469Z,4.80
2022-11-10T04:14:55.401Z,5.40
2022-11-10T04:15:55.350Z,5.10
2022-11-10T04:16:55.244Z,5.20
2022-11-10T04:17:55.218Z,4.90
2022-11-10T04:18:55.134Z,5.30
2022-11-10T04:19:55.078Z,4.60
2022-11-10T04:21:15.997Z,4.90
2022-11-10T04:21:54.949Z,5.40
2022-11-10T04:22:54.873Z,4.80
2022-11-10T04:23:54.814Z,5.10
2022-11-10T04:24:54.771Z,5.30
2022-11-10T04:25:54.686Z,5.80
2022-11-10T04:26:54.658Z,5.20
2022-11-10T04:27:54.577Z,4.90
2022-11-10T04:28:54.489Z,5.40
2022-11-10T04:29:54.456Z,6.00
2022-11-10T04:30:54.393Z,5.50
2022-11-10T04:31:54.320Z,5.70
2022-11-10T04:32:54.266Z,6.00
2022-11-10T04:33:54.206Z,6.10
2022-11-10T04:34:54.817Z,6.80
2022-11-10T04:35:54.065Z,5.90
2022-11-10T04:36:53.981Z,5.60
2022-11-10T04:37:53.918Z,6.30
2022-11-10T04:40:32.864Z,6.70
2022-11-10T04:41:33.812Z,7.00
2022-11-10T04:42:33.721Z,6.60
2022-11-10T04:43:33.675Z,6.10
2022-11-10T04:44:33.616Z,6.20
2022-11-10T04:45:33.581Z,5.90
2022-11-10T04:46:33.500Z,5.30
2022-11-10T04:47:33.421Z,6.40
2022-11-10T04:48:33.368Z,5.10
2022-11-10T04:49:33.276Z,6.90
2022-11-10T04:50:33.223Z,6.70
2022-11-10T04:51:33.242Z,6.20
2022-11-10T04:52:33.117Z,7.10
2022-11-10T04:53:33.020Z,6.40
2022-11-10T04:54:32.976Z,6.90
2022-11-10T04:55:32.905Z,6.60
2022-11-10T04:56:33.806Z,7.00
2022-11-10T04:58:41.999Z,7.70
2022-11-10T04:59:42.925Z,7.00
2022-11-10T05:00:42.931Z,7.50
2022-11-10T05:01:42.827Z,7.00
2022-11-10T05:02:42.754Z,6.60
2022-11-10T05:03:42.713Z,6.70
2022-11-10T05:04:42.631Z,7.40
2022-11-10T05:05:42.547Z,6.00
2022-11-10T05:06:42.521Z,6.60
2022-11-10T05:07:42.428Z,6.90
2022-11-10T05:08:42.357Z,6.60
2022-11-10T05:09:42.305Z,5.70
2022-11-10T05:10:42.230Z,7.10
2022-11-10T05:11:42.175Z,6.50
2022-11-10T05:12:42.122Z,6.00
2022-11-10T05:13:42.048Z,7.40
2022-11-10T05:14:41.975Z,6.20
2022-11-10T05:15:42.121Z,6.50
2022-11-10T05:16:41.866Z,6.20
2022-11-10T05:17:41.802Z,7.20
2022-11-10T05:18:41.740Z,8.20
2022-11-10T05:19:41.664Z,6.60
2022-11-10T05:20:41.623Z,6.40
2022-11-10T05:21:41.576Z,6.70
2022-11-10T05:22:45.253Z,6.80
2022-11-10T05:23:41.423Z,7.00
2022-11-10T05:24:41.349Z,6.60
2022-11-10T05:25:41.276Z,6.80
2022-11-10T05:26:41.215Z,7.20
2022-11-10T05:27:41.163Z,6.90
2022-11-10T05:28:41.073Z,7.20
2022-11-10T05:29:41.027Z,7.20
2022-11-10T05:30:40.953Z,7.70
2022-11-10T05:31:40.885Z,7.80
2022-11-10T05:32:40.824Z,7.10
2022-11-10T05:33:40.785Z,7.10
2022-11-10T05:34:40.695Z,7.40
2022-11-10T05:35:40.649Z,8.20
2022-11-10T05:36:40.571Z,7.20
2022-11-10T05:37:40.500Z,6.50
2022-11-10T05:38:43.563Z,7.50
2022-11-10T05:39:40.389Z,7.30
2022-11-10T05:40:40.330Z,7.60
2022-11-10T05:41:40.268Z,7.70
2022-11-10T05:42:40.198Z,8.20
2022-11-10T05:43:40.119Z,8.30
2022-11-10T05:44:40.077Z,7.30
2022-11-10T05:45:40.036Z,7.30
2022-11-10T05:46:39.933Z,8.20
2022-11-10T05:47:39.885Z,8.00
2022-11-10T05:48:39.803Z,7.10
2022-11-10T05:49:39.737Z,8.20
2022-11-10T05:50:39.668Z,7.70
2022-11-10T05:51:39.617Z,7.80
2022-11-10T05:52:39.554Z,8.20
2022-11-10T05:53:39.477Z,8.60
2022-11-10T05:54:39.409Z,8.10
2022-11-10T05:55:39.363Z,8.60
2022-11-10T05:56:39.287Z,8.10
2022-11-10T05:57:39.244Z,8.40
2022-11-10T05:58:39.162Z,8.00
2022-11-10T05:59:39.113Z,8.80
2022-11-10T06:00:38.970Z,8.10
2022-11-10T06:01:38.927Z,9.00
2022-11-10T06:02:38.856Z,8.90
2022-11-10T06:03:38.804Z,8.80
2022-11-10T06:04:38.743Z,8.60
2022-11-10T06:05:38.658Z,9.50
2022-11-10T06:06:38.669Z,10.50
2022-11-10T06:07:38.542Z,9.50
2022-11-10T06:08:38.491Z,10.10
2022-11-10T06:09:59.394Z,9.50
2022-11-10T06:10:38.349Z,9.00
2022-11-10T06:11:38.277Z,9.60
2022-11-10T06:12:38.221Z,9.40
2022-11-10T06:13:38.144Z,10.20
2022-11-10T06:14:38.098Z,9.20
2022-11-10T06:15:38.012Z,9.80
2022-11-10T06:16:37.971Z,9.60
2022-11-10T06:17:37.864Z,9.70
2022-11-10T06:18:37.828Z,10.00
2022-11-10T06:19:37.753Z,10.40
2022-11-10T06:20:37.692Z,10.40
2022-11-10T06:21:37.646Z,10.70
2022-11-10T06:22:37.570Z,11.30
2022-11-10T06:23:37.501Z,11.80
2022-11-10T06:24:37.458Z,10.70
2022-11-10T06:25:37.391Z,11.60
2022-11-10T06:26:37.311Z,10.70
2022-11-10T06:27:37.279Z,11.60
2022-11-10T06:28:37.203Z,12.20
2022-11-10T06:29:37.136Z,10.60
2022-11-10T06:30:37.037Z,11.70
2022-11-10T06:31:36.994Z,10.70
2022-11-10T06:32:36.923Z,11.30
2022-11-10T06:33:36.871Z,12.10
2022-11-10T06:34:36.816Z,12.60
2022-11-10T06:35:36.749Z,11.40
2022-11-10T06:36:36.660Z,13.00
2022-11-10T06:37:36.599Z,13.60
2022-11-10T06:38:36.558Z,12.50
2022-11-10T06:39:36.500Z,12.80
2022-11-10T06:40:36.431Z,12.90
2022-11-10T06:41:36.351Z,12.70
2022-11-10T06:42:36.277Z,13.00
2022-11-10T06:43:36.245Z,13.20
2022-11-10T06:44:36.158Z,13.40
2022-11-10T06:45:36.143Z,13.20
2022-11-10T06:46:41.167Z,12.50
2022-11-10T06:47:35.967Z,12.00
2022-11-10T06:48:35.896Z,11.70
2022-11-10T06:49:35.841Z,12.70
2022-11-10T06:50:35.777Z,12.00
2022-11-10T06:51:35.828Z,12.50
2022-11-10T06:52:35.667Z,12.20
2022-11-10T06:53:35.606Z,12.10
2022-11-10T06:54:36.421Z,13.20
2022-11-10T06:55:35.475Z,12.20
2022-11-10T06:56:35.427Z,12.80
2022-11-10T06:57:35.351Z,12.00
2022-11-10T06:58:35.285Z,12.00
2022-11-10T06:59:35.221Z,13.80
2022-11-10T07:00:35.150Z,11.70
2022-11-10T07:01:35.152Z,12.30
2022-11-10T07:02:35.004Z,11.20
2022-11-10T07:05:13.868Z,10.80
2022-11-10T07:06:15.331Z,11.50
2022-11-10T07:07:15.898Z,11.50
2022-11-10T07:08:16.034Z,10.60
2022-11-10T07:09:15.485Z,12.50
2022-11-10T07:10:14.523Z,13.30
2022-11-10T07:11:15.417Z,11.50
2022-11-10T07:12:14.383Z,11.20
2022-11-10T07:13:14.980Z,11.80
2022-11-10T07:14:14.249Z,11.50
2022-11-10T07:15:14.219Z,11.30
2022-11-10T07:16:14.102Z,10.20
2022-11-10T07:17:14.065Z,10.70
2022-11-10T07:18:14.003Z,10.00
2022-11-10T07:19:13.931Z,10.50
2022-11-10T07:20:15.047Z,10.40
2022-11-10T07:21:14.103Z,9.90
2022-11-10T07:22:13.759Z,10.90
2022-11-10T07:23:13.694Z,10.60
2022-11-10T07:24:14.885Z,10.20
2022-11-10T07:25:13.639Z,10.90
2022-11-10T07:26:13.475Z,10.20
2022-11-10T07:27:13.442Z,11.70
2022-11-10T07:28:13.355Z,10.10
2022-11-10T07:29:13.283Z,9.80
2022-11-10T07:30:13.223Z,10.00
2022-11-10T07:31:13.168Z,10.50
2022-11-10T07:32:13.128Z,10.30
2022-11-10T07:33:13.054Z,10.60
2022-11-10T07:34:12.974Z,10.90
2022-11-10T07:35:12.920Z,10.10
2022-11-10T07:36:12.861Z,10.40
2022-11-10T07:37:12.805Z,10.20
2022-11-10T07:38:12.726Z,11.10
2022-11-10T07:40:51.541Z,10.40
2022-11-10T07:41:52.997Z,11.10
2022-11-10T07:42:52.382Z,10.60
2022-11-10T07:43:52.310Z,11.00
2022-11-10T07:44:52.270Z,10.80
2022-11-10T07:45:52.212Z,10.30
2022-11-10T07:46:52.146Z,10.20
2022-11-10T07:47:52.120Z,9.80
2022-11-10T07:48:52.016Z,10.50
2022-11-10T07:49:51.956Z,9.90
2022-11-10T07:50:51.908Z,10.30
2022-11-10T07:51:51.816Z,10.80
2022-11-10T07:52:51.755Z,9.90
2022-11-10T07:53:51.671Z,10.20
2022-11-10T07:54:51.610Z,10.40
2022-11-10T07:55:51.566Z,10.30
2022-11-10T07:58:00.704Z,10.40
2022-11-10T07:59:01.630Z,10.80
2022-11-10T08:00:01.561Z,11.20
2022-11-10T08:01:01.501Z,10.20
2022-11-10T08:02:01.481Z,9.80
2022-11-10T08:03:01.371Z,10.20
2022-11-10T08:04:01.293Z,10.30
2022-11-10T08:05:01.250Z,9.40
2022-11-10T08:06:01.176Z,10.20
2022-11-10T08:07:01.236Z,9.60
2022-11-10T08:08:01.044Z,9.70
2022-11-10T08:09:00.993Z,9.40
2022-11-10T08:10:00.908Z,9.30
2022-11-10T08:11:00.844Z,10.80
2022-11-10T08:12:00.795Z,9.10
2022-11-10T08:13:00.718Z,9.20
2022-11-10T08:14:00.646Z,9.50
2022-11-10T08:15:21.601Z,8.50
2022-11-10T08:16:00.557Z,10.20
2022-11-10T08:17:00.472Z,9.50
2022-11-10T08:18:00.404Z,9.50
2022-11-10T08:19:00.362Z,9.10
2022-11-10T08:20:00.285Z,9.20
2022-11-10T08:21:00.244Z,8.30
2022-11-10T08:22:00.172Z,8.50
2022-11-10T08:23:00.131Z,8.40
2022-11-10T08:24:00.033Z,8.30
2022-11-10T08:24:59.972Z,8.80
2022-11-10T08:25:59.904Z,8.70
2022-11-10T08:26:59.852Z,9.10
2022-11-10T08:27:59.813Z,7.70
2022-11-10T08:29:00.055Z,7.70
2022-11-10T08:29:59.638Z,7.50
2022-11-10T08:31:05.127Z,7.80
2022-11-10T08:31:59.532Z,8.10
2022-11-10T08:34:38.385Z,6.90
2022-11-10T08:35:39.306Z,6.80
2022-11-10T08:36:39.252Z,7.20
2022-11-10T08:37:39.183Z,6.90
2022-11-10T08:38:39.139Z,7.20
2022-11-10T08:39:39.791Z,6.40
2022-11-10T08:40:38.983Z,6.40
2022-11-10T08:41:38.922Z,6.80
2022-11-10T08:42:38.851Z,6.60
2022-11-10T08:43:38.804Z,6.70
2022-11-10T08:44:38.746Z,6.10
2022-11-10T08:45:38.654Z,7.00
2022-11-10T08:46:38.600Z,6.70
2022-11-10T08:47:38.528Z,6.90
2022-11-10T08:48:38.482Z,6.30
2022-11-10T08:49:38.386Z,5.90
2022-11-10T08:51:47.528Z,6.30
2022-11-10T08:52:48.457Z,6.30
2022-11-10T08:53:48.402Z,6.20
2022-11-10T08:54:48.333Z,7.10
2022-11-10T08:55:48.251Z,6.40
2022-11-10T08:56:48.200Z,5.60
2022-11-10T08:57:49.000Z,6.40
2022-11-10T08:58:53.169Z,7.40
2022-11-10T08:59:49.079Z,5.80
2022-11-10T09:00:50.051Z,7.00
2022-11-10T09:01:47.877Z,6.10
2022-11-10T09:02:48.080Z,6.50
2022-11-10T09:03:47.745Z,6.20
2022-11-10T09:04:47.719Z,6.70
2022-11-10T09:05:47.601Z,6.70
2022-11-10T09:06:47.589Z,6.60
2022-11-10T09:07:47.479Z,5.70
2022-11-10T09:08:47.424Z,6.20
2022-11-10T09:10:06.088Z,5.80
2022-11-10T09:10:47.286Z,6.90
2022-11-10T09:11:47.220Z,6.20
2022-11-10T09:12:47.156Z,6.10
2022-11-10T09:13:47.113Z,6.70
2022-11-10T09:14:47.045Z,6.30
2022-11-10T09:15:46.984Z,5.70
2022-11-10T09:16:46.952Z,5.90
2022-11-10T09:17:46.864Z,6.10
2022-11-10T09:18:46.778Z,6.00
2022-11-10T09:19:46.793Z,6.10
2022-11-10T09:20:46.661Z,7.40
2022-11-10T09:21:46.597Z,5.70
2022-11-10T09:22:46.509Z,6.10
2022-11-10T09:23:46.483Z,5.60
2022-11-10T09:24:46.602Z,5.40
2022-11-10T09:25:46.345Z,5.60
2022-11-10T09:26:46.304Z,4.90
2022-11-10T09:27:46.221Z,6.70
2022-11-10T09:28:46.153Z,6.50
2022-11-10T09:29:46.062Z,5.40
2022-11-10T09:30:45.988Z,5.30
2022-11-10T09:31:45.947Z,5.90
2022-11-10T09:32:45.912Z,4.80
2022-11-10T09:33:45.816Z,5.20
2022-11-10T09:34:48.958Z,6.40
2022-11-10T09:35:45.696Z,5.00
2022-11-10T09:36:45.663Z,5.80
2022-11-10T09:37:45.579Z,5.00
2022-11-10T09:38:45.542Z,5.30
2022-11-10T09:39:45.450Z,5.20
2022-11-10T09:40:45.375Z,5.60
2022-11-10T09:41:45.405Z,6.50
2022-11-10T09:42:45.245Z,6.00
2022-11-10T09:43:45.187Z,5.50
2022-11-10T09:44:45.146Z,5.80
2022-11-10T09:45:45.112Z,5.10
2022-11-10T09:46:45.023Z,5.10
2022-11-10T09:48:00.392Z,4.70
2022-11-10T09:48:44.913Z,5.60
2022-11-10T09:49:44.809Z,5.30
2022-11-10T09:50:44.780Z,5.50
2022-11-10T09:51:48.299Z,5.20
2022-11-10T09:52:45.521Z,5.50
2022-11-10T09:53:44.570Z,5.10
2022-11-10T09:54:44.497Z,6.00
2022-11-10T09:55:44.993Z,5.60
2022-11-10T09:56:44.386Z,5.20
2022-11-10T09:57:48.733Z,4.90
2022-11-10T09:58:44.232Z,5.10
2022-11-10T09:59:44.190Z,5.50
2022-11-10T10:00:44.134Z,5.90
2022-11-10T10:01:44.117Z,5.10
2022-11-10T10:04:22.849Z,4.80
2022-11-10T10:05:23.785Z,5.20
2022-11-10T10:06:23.837Z,4.70
2022-11-10T10:07:23.702Z,5.90
2022-11-10T10:08:23.955Z,11.90
2022-11-10T10:09:23.558Z,5.20
2022-11-10T10:10:23.478Z,5.70
2022-11-10T10:11:23.714Z,4.80
2022-11-10T10:12:24.087Z,5.20
2022-11-10T10:13:23.854Z,5.10
2022-11-10T10:14:23.213Z,5.70
2022-11-10T10:15:25.712Z,4.70
2022-11-10T10:16:23.083Z,5.20
2022-11-10T10:17:26.913Z,5.10
2022-11-10T10:18:23.451Z,5.70
2022-11-10T10:19:22.916Z,5.30
2022-11-10T10:20:22.833Z,5.00
2022-11-10T10:21:22.793Z,5.50
2022-11-10T10:22:23.350Z,4.70
2022-11-10T10:23:35.221Z,5.20
2022-11-10T10:24:22.644Z,5.20
2022-11-10T10:25:22.636Z,5.20
2022-11-10T10:26:22.490Z,5.90
2022-11-10T10:27:24.636Z,4.80
2022-11-10T10:28:22.700Z,5.20
2022-11-10T10:29:22.247Z,5.20
2022-11-10T10:30:24.147Z,5.40
2022-11-10T10:31:45.200Z,6.20
2022-11-10T10:32:22.302Z,5.00
2022-11-10T10:33:23.383Z,5.30
2022-11-10T10:34:21.936Z,5.00
2022-11-10T10:35:23.560Z,5.30
2022-11-10T10:36:21.896Z,5.20
2022-11-10T10:37:21.746Z,5.50
2022-11-10T10:38:22.052Z,5.40
2022-11-10T10:39:45.142Z,5.80
2022-11-10T10:40:23.337Z,5.70
2022-11-10T10:41:23.931Z,6.80
2022-11-10T10:42:21.452Z,5.60
2022-11-10T10:43:21.380Z,5.90
2022-11-10T10:44:21.331Z,6.00
2022-11-10T10:45:21.359Z,5.80
2022-11-10T10:46:21.186Z,6.40
2022-11-10T10:47:21.116Z,5.60
2022-11-10T10:48:22.678Z,5.90
2022-11-10T10:49:29.927Z,4.90
2022-11-10T10:50:20.945Z,5.10
2022-11-10T10:51:22.787Z,7.00
2022-11-10T10:52:20.801Z,5.00
2022-11-10T10:53:21.981Z,6.30
2022-11-10T10:54:20.685Z,5.00
2022-11-10T10:55:20.633Z,5.10
2022-11-10T10:56:20.553Z,5.30
2022-11-10T10:57:41.494Z,5.10
2022-11-10T10:58:20.975Z,5.10
2022-11-10T10:59:20.836Z,6.20
2022-11-10T11:00:21.841Z,5.70
2022-11-10T11:01:20.289Z,5.40
2022-11-10T11:02:20.181Z,4.90
2022-11-10T11:03:20.135Z,5.20
2022-11-10T11:04:20.086Z,5.50
2022-11-10T11:05:19.973Z,5.20
2022-11-10T11:06:19.946Z,5.20
2022-11-10T11:07:19.853Z,4.80
2022-11-10T11:08:21.719Z,5.50
2022-11-10T11:09:20.133Z,5.30
2022-11-10T11:10:20.348Z,5.60
2022-11-10T11:11:20.381Z,5.10
2022-11-10T11:12:20.940Z,4.80
2022-11-10T11:13:19.464Z,5.40
2022-11-10T11:14:20.529Z,5.50
2022-11-10T11:15:19.346Z,5.20
2022-11-10T11:16:19.290Z,5.50
2022-11-10T11:17:19.382Z,5.50
2022-11-10T11:18:19.307Z,6.70
2022-11-10T11:19:19.094Z,5.60
2022-11-10T11:20:19.022Z,5.90
2022-11-10T11:21:19.000Z,5.80
2022-11-10T11:22:18.904Z,4.90
2022-11-10T11:23:18.846Z,5.80
2022-11-10T11:24:18.889Z,5.90
2022-11-10T11:25:18.723Z,5.80
2022-11-10T11:26:18.691Z,5.20
2022-11-10T11:27:18.620Z,5.20
2022-11-10T11:28:18.543Z,5.20
2022-11-10T11:29:18.451Z,5.70
2022-11-10T11:30:18.384Z,6.40
2022-11-10T11:31:18.344Z,5.40
2022-11-10T11:32:18.271Z,6.40
2022-11-10T11:33:40.374Z,5.50
2022-11-10T11:34:19.479Z,5.40
2022-11-10T11:35:18.100Z,6.50
2022-11-10T11:36:18.030Z,5.80
2022-11-10T11:37:19.583Z,6.20
2022-11-10T11:38:19.099Z,4.80
2022-11-10T11:39:18.420Z,5.60
2022-11-10T11:40:20.361Z,6.20
2022-11-10T11:41:19.572Z,6.20
2022-11-10T11:42:19.364Z,5.70
2022-11-10T11:43:18.828Z,5.40
2022-11-10T11:44:19.658Z,5.70
2022-11-10T11:45:17.465Z,5.10
2022-11-10T11:46:17.764Z,5.60
2022-11-10T11:47:17.829Z,5.70
2022-11-10T11:48:17.248Z,6.20
2022-11-10T11:49:17.165Z,5.60
2022-11-10T11:50:17.117Z,5.60
2022-11-10T11:52:59.163Z,5.70
2022-11-10T11:53:57.016Z,5.70
2022-11-10T11:54:56.951Z,5.90
2022-11-10T11:55:56.893Z,5.60
2022-11-10T11:56:56.810Z,5.20
2022-11-10T11:57:57.427Z,5.80
2022-11-10T11:58:56.678Z,6.20
2022-11-10T11:59:56.655Z,5.50
2022-11-10T12:00:58.693Z,5.50
2022-11-10T12:01:56.766Z,6.80
2022-11-10T12:02:59.306Z,5.90
2022-11-10T12:03:58.707Z,5.50
2022-11-10T12:04:57.426Z,5.60
2022-11-10T12:05:57.581Z,6.00
2022-11-10T12:06:59.964Z,6.10
2022-11-10T12:07:56.110Z,5.90
2022-11-10T12:08:56.057Z,6.30
2022-11-10T12:09:56.036Z,5.60
2022-11-10T12:10:55.916Z,6.30
2022-11-10T12:11:55.854Z,6.70
2022-11-10T12:12:55.785Z,6.70
2022-11-10T12:13:55.751Z,5.60
2022-11-10T12:14:55.671Z,7.10
2022-11-10T12:15:55.631Z,5.40
2022-11-10T12:16:55.581Z,6.30
2022-11-10T12:17:55.506Z,6.40
2022-11-10T12:18:55.420Z,6.70
2022-11-10T12:19:55.374Z,7.40
2022-11-10T12:20:55.276Z,6.40
2022-11-10T12:21:55.227Z,6.30
2022-11-10T12:22:55.171Z,6.30
2022-11-10T12:23:55.103Z,7.20
2022-11-10T12:24:55.022Z,7.60
2022-11-10T12:25:54.976Z,6.60
2022-11-10T12:26:54.892Z,7.30
2022-11-10T12:27:54.863Z,6.40
2022-11-10T12:28:54.753Z,6.60
2022-11-10T12:29:54.720Z,6.90
2022-11-10T12:30:59.084Z,6.30
2022-11-10T12:31:54.612Z,7.30
2022-11-10T12:32:54.529Z,6.60
2022-11-10T12:33:56.863Z,6.60
2022-11-10T12:34:54.397Z,7.20
2022-11-10T12:35:54.339Z,6.10
2022-11-10T12:36:54.947Z,7.70
2022-11-10T12:37:54.203Z,6.30
2022-11-10T12:38:59.439Z,6.80
2022-11-10T12:39:54.095Z,6.50
2022-11-10T12:40:54.003Z,6.10
2022-11-10T12:41:53.964Z,8.10
2022-11-10T12:42:53.880Z,6.50
2022-11-10T12:43:53.818Z,6.40
2022-11-10T12:44:54.931Z,6.90
2022-11-10T12:51:39.553Z,6.40
2022-11-10T12:52:40.532Z,6.50
2022-11-10T12:53:40.441Z,6.30
2022-11-10T12:54:40.353Z,6.20
2022-11-10T12:55:40.286Z,6.80
2022-11-10T12:56:40.285Z,5.90
2022-11-10T12:57:40.657Z,5.90
2022-11-10T12:58:40.084Z,5.80
2022-11-10T12:59:40.049Z,6.50
2022-11-10T13:00:39.979Z,6.60
2022-11-10T13:01:39.981Z,6.70
2022-11-10T13:02:39.852Z,6.50
2022-11-10T13:03:39.839Z,6.00
2022-11-10T13:04:39.730Z,5.90
2022-11-10T13:05:39.659Z,6.30
2022-11-10T13:06:39.665Z,5.90
2022-11-10T13:07:39.562Z,7.20
2022-11-10T13:08:39.473Z,6.60
2022-11-10T13:09:39.392Z,6.00
2022-11-10T13:10:39.333Z,5.30
2022-11-10T13:11:39.274Z,7.00
2022-11-10T13:12:39.216Z,6.10
2022-11-10T13:13:39.162Z,5.60
2022-11-10T13:14:39.143Z,7.40
2022-11-10T13:15:39.030Z,6.70
2022-11-10T13:16:38.952Z,7.40
2022-11-10T13:17:38.932Z,6.30
2022-11-10T13:18:38.817Z,6.00
2022-11-10T13:19:38.789Z,6.50
2022-11-10T13:20:38.728Z,6.90
2022-11-10T13:21:38.633Z,6.10
2022-11-10T13:22:38.563Z,6.50
2022-11-10T13:23:38.517Z,6.60
2022-11-10T13:24:38.444Z,6.40
2022-11-10T13:25:38.396Z,5.70
2022-11-10T13:26:38.348Z,6.50
2022-11-10T13:27:38.240Z,6.60
2022-11-10T13:28:39.040Z,5.30
2022-11-10T13:29:40.184Z,5.40
2022-11-10T13:30:38.056Z,6.30
2022-11-10T13:31:38.019Z,5.80
2022-11-10T13:32:37.930Z,5.70
2022-11-10T13:33:37.890Z,5.90
2022-11-10T13:34:37.815Z,6.60
2022-11-10T13:35:37.780Z,5.90
2022-11-10T13:36:37.696Z,7.20
2022-11-10T13:37:37.640Z,6.10